Peterculter, United Kingdom
Current Conditions -  °F | °C
As of 12:20 PM on Monday 26 Jan 2015 (Local Time) from EGPD Reporting Station
Few Clouds Few Clouds  
Wind Chill: 33°   Ceiling: Unl
Heat Index: 41°   Visibility: 6mi
Dew Point: 32°   Wind: 16mph
Humidity: 70%   Direction: 290°WNW
Pressure: 29.97"   Gusts: NA
Location:  57.1°N, 2.27°W
Report Text: EGPD 261220Z 29014KT 9999 FEW048 05/M00 Q1015 NOSIG
Loading
Personal Weather Stations






























Interactive Weather Map New forecast layout! Learn more

10-Day Weather Forecast

Advertisements
Track Severe Weather on mobile